Terminal Aerodrome Forecast
Issued by NWS

Home | Current Version | Previous Version | Text Only | Print | Product List | Glossary Off
Versions: 1 2 3 4 5 6 7 8 9 10 11 12 13 14

000
FTUS43 KICT 252131 AAA
TAFCNU
TAF AMD
KCNU 252131Z 2522/2618 33017G27KT P6SM BKN025
     FM252300 34017G25KT P6SM SCT025 BKN040
     FM260200 34008KT P6SM SCT040
     FM260500 35007KT P6SM SKC
     FM260900 VRB05KT P6SM SKC
     FM261100 23006KT P6SM SKC
     FM261400 23010KT P6SM SCT050=

USA.gov is the U.S. government's official web portal to all federal, state and local government web resources and services.